Time;durP1;ratioP1;P1;durP2;ratioP2;P2;SDS_P1;SDS_P2;PMS_P1;PMS_P2;Temp;Humidity;BMP_temperature;BMP_pressure;BME280_temperature;BME280_humidity;BME280_pressure;Samples;Min_cycle;Max_cycle;Signal;HPM_P1;HPM_P2
2022/10/26 00:01:21;;;;;;;;;;;;;;;13.43;95.27;99148.50;10240126;23;20000;-80
2022/10/26 00:05:23;;;;;;;;;;;;;;;13.44;95.16;99149.34;10235949;23;19923;-79
2022/10/26 00:09:24;;;;;;;;;;;;;;;13.43;94.99;99147.63;10260934;23;19974;-80
2022/10/26 00:13:26;;;;;;;;;;;;;;;13.44;94.46;99152.81;10286115;23;19946;-80
2022/10/26 00:17:27;;;;;;;;;;;;;;;13.44;94.02;99145.00;10226957;23;19963;-80
2022/10/26 00:21:29;;;;;;;;;;;;;;;13.44;94.31;99134.56;10234458;23;19985;-80
2022/10/26 00:25:30;;;;;;;;;;;;;;;13.44;93.96;99128.47;10284138;23;19963;-80
2022/10/26 00:29:32;;;;;;;;;;;;;;;13.43;94.32;99121.56;10257704;23;19931;-80
2022/10/26 00:33:34;;;;;;;;;;;;;;;13.46;94.13;99142.34;10277243;23;20003;-80
2022/10/26 00:37:35;;;;;;;;;;;;;;;13.47;93.47;99142.34;10289513;23;19932;-80
2022/10/26 00:41:37;;;;;;;;;;;;;;;13.48;93.59;99144.06;10231969;23;19959;-79
2022/10/26 00:45:38;;;;;;;;;;;;;;;13.49;93.62;99144.91;10251655;23;20003;-80
2022/10/26 00:49:40;;;;;;;;;;;;;;;13.47;94.04;99131.91;10234560;23;19920;-80
2022/10/26 00:53:41;;;;;;;;;;;;;;;13.46;94.17;99131.91;10258284;23;19957;-80
2022/10/26 00:57:42;;;;;;;;;;;;;;;13.46;94.68;99130.16;10233678;23;20559;-79
2022/10/26 01:01:46;;;;;;;;;;;;;;;13.44;95.12;99136.31;10252204;23;19974;-79
2022/10/26 01:05:48;;;;;;;;;;;;;;;13.42;95.26;99130.25;10231760;23;19924;-79
2022/10/26 01:09:50;;;;;;;;;;;;;;;13.41;95.48;99120.72;10232994;23;20011;-79
2022/10/26 01:13:52;;;;;;;;;;;;;;;13.38;96.00;99124.25;10234924;23;19981;-80
2022/10/26 01:17:56;;;;;;;;;;;;;;;13.36;95.96;99126.03;10251735;23;19954;-79
2022/10/26 01:22:03;;;;;;;;;;;;;;;13.35;95.71;99126.94;10285022;23;20299;-79
2022/10/26 01:26:21;;;;;;;;;;;;;;;13.38;95.43;99126.88;10282742;23;19998;-79
2022/10/26 01:30:30;;;;;;;;;;;;;;;13.37;95.51;99126.91;10252254;23;20341;-79
2022/10/26 01:34:43;;;;;;;;;;;;;;;13.37;95.04;99145.16;10256962;23;19932;-79
2022/10/26 01:39:01;;;;;;;;;;;;;;;13.40;94.76;99148.56;10281785;23;19981;-79
2022/10/26 01:43:06;;;;;;;;;;;;;;;13.40;95.21;99108.56;10231550;23;20015;-79
2022/10/26 01:47:10;;;;;;;;;;;;;;;13.36;95.65;99144.28;10252286;23;19970;-80
2022/10/26 01:51:12;;;;;;;;;;;;;;;13.31;96.42;99140.94;10232287;23;20010;-80
2022/10/26 01:55:31;;;;;;;;;;;;;;;13.29;97.16;99150.53;10231768;23;20324;-80
2022/10/26 01:59:36;;;;;;;;;;;;;;;13.24;97.56;99158.41;10257523;23;20345;-80
2022/10/26 02:03:55;;;;;;;;;;;;;;;13.22;98.16;99141.94;10228065;23;19977;-79
2022/10/26 02:08:09;;;;;;;;;;;;;;;13.21;97.94;99142.84;10284703;23;19920;-79
2022/10/26 02:12:30;;;;;;;;;;;;;;;13.20;98.62;99132.44;10259602;23;19927;-80
2022/10/26 02:16:45;;;;;;;;;;;;;;;13.16;99.24;99133.38;10227915;23;19958;-80
2022/10/26 02:20:50;;;;;;;;;;;;;;;13.14;99.20;99127.31;10286415;23;19920;-80
2022/10/26 02:24:52;;;;;;;;;;;;;;;13.10;99.25;99131.72;10259140;23;19993;-80
2022/10/26 02:28:55;;;;;;;;;;;;;;;13.09;99.64;99121.31;10236939;23;20326;-80
2022/10/26 02:32:56;;;;;;;;;;;;;;;13.07;99.90;99117.88;10258482;23;20542;-80
2022/10/26 02:37:00;;;;;;;;;;;;;;;13.05;99.42;99136.16;10262921;23;19928;-80
2022/10/26 02:41:02;;;;;;;;;;;;;;;12.97;100.00;99133.69;10213792;23;20419;-80
2022/10/26 02:45:06;;;;;;;;;;;;;;;12.96;100.00;99155.44;10232410;23;19974;-80
2022/10/26 02:49:07;;;;;;;;;;;;;;;12.97;100.00;99140.66;10236877;23;19924;-80
2022/10/26 02:53:23;;;;;;;;;;;;;;;12.98;100.00;99132.81;10236568;23;20430;-80
2022/10/26 02:57:28;;;;;;;;;;;;;;;12.99;100.00;99118.03;10238411;23;19983;-79
2022/10/26 03:01:31;;;;;;;;;;;;;;;12.95;100.00;99114.63;10206565;23;19924;-79
2022/10/26 03:05:34;;;;;;;;;;;;;;;12.97;100.00;99112.00;10234127;23;19986;-79
2022/10/26 03:09:36;;;;;;;;;;;;;;;12.98;100.00;99096.31;10232486;23;19924;-79
2022/10/26 03:13:37;;;;;;;;;;;;;;;12.91;100.00;99099.06;10232191;23;20003;-81
2022/10/26 03:17:38;;;;;;;;;;;;;;;12.91;100.00;99107.72;10227568;23;20008;-81
2022/10/26 03:21:41;;;;;;;;;;;;;;;12.91;100.00;99091.25;10236510;23;19924;-79
2022/10/26 03:25:42;;;;;;;;;;;;;;;12.89;100.00;99095.63;10235566;23;20594;-79
2022/10/26 03:29:43;;;;;;;;;;;;;;;12.89;100.00;99099.09;10235665;23;20541;-80
2022/10/26 03:33:45;;;;;;;;;;;;;;;12.86;100.00;99096.53;10236355;23;19957;-79
2022/10/26 03:37:46;;;;;;;;;;;;;;;12.85;100.00;99092.22;10287266;23;20279;-79
2022/10/26 03:41:48;;;;;;;;;;;;;;;12.81;100.00;99087.09;10263361;23;19919;-79
2022/10/26 03:45:50;;;;;;;;;;;;;;;12.76;100.00;99086.34;10235081;23;19920;-80
2022/10/26 03:49:51;;;;;;;;;;;;;;;12.67;100.00;99088.19;10239733;23;19981;-80
2022/10/26 03:53:53;;;;;;;;;;;;;;;12.60;100.00;99085.75;10238006;23;19946;-80
2022/10/26 03:57:54;;;;;;;;;;;;;;;12.54;100.00;99094.50;10261953;23;19970;-80
2022/10/26 04:01:55;;;;;;;;;;;;;;;12.50;100.00;99084.19;10254687;23;19971;-80
2022/10/26 04:06:01;;;;;;;;;;;;;;;12.49;100.00;99100.69;10235365;23;19929;-80
2022/10/26 04:10:04;;;;;;;;;;;;;;;12.47;100.00;99102.47;10235155;23;19926;-80
2022/10/26 04:14:06;;;;;;;;;;;;;;;12.49;100.00;99109.34;10262577;23;20002;-80
2022/10/26 04:18:08;;;;;;;;;;;;;;;12.55;100.00;99116.19;10229684;23;20003;-79
2022/10/26 04:22:09;;;;;;;;;;;;;;;12.54;100.00;99122.28;10234870;23;19966;-79
2022/10/26 04:26:11;;;;;;;;;;;;;;;12.55;100.00;99130.06;10260321;23;19924;-80
2022/10/26 04:30:12;;;;;;;;;;;;;;;12.58;100.00;99129.19;10256070;23;19985;-80
2022/10/26 04:34:14;;;;;;;;;;;;;;;12.60;100.00;99138.69;10260807;23;19995;-79
2022/10/26 04:38:16;;;;;;;;;;;;;;;12.61;100.00;99145.63;10262683;23;19977;-80
2022/10/26 04:42:17;;;;;;;;;;;;;;;12.64;100.00;99142.09;10239351;23;19946;-81
2022/10/26 04:46:18;;;;;;;;;;;;;;;12.67;100.00;99153.31;10263155;23;19920;-80
2022/10/26 04:50:20;;;;;;;;;;;;;;;12.73;100.00;99165.38;10276451;23;20247;-80
2022/10/26 04:54:25;;;;;;;;;;;;;;;12.86;100.00;99166.03;10254887;23;19963;-80
2022/10/26 04:58:27;;;;;;;;;;;;;;;12.95;100.00;99166.75;10279879;23;19931;-80
2022/10/26 05:02:28;;;;;;;;;;;;;;;13.02;100.00;99165.75;10274510;23;19923;-80
2022/10/26 05:06:30;;;;;;;;;;;;;;;13.11;100.00;99171.69;10272542;23;19935;-80
2022/10/26 05:10:32;;;;;;;;;;;;;;;13.18;100.00;99174.19;10269971;23;19927;-80
2022/10/26 05:14:34;;;;;;;;;;;;;;;13.27;100.00;99178.34;10281805;23;19962;-80
2022/10/26 05:18:35;;;;;;;;;;;;;;;13.34;100.00;99182.59;10248119;23;19924;-80
2022/10/26 05:22:39;;;;;;;;;;;;;;;13.40;100.00;99174.63;10274512;23;20658;-80
2022/10/26 05:26:40;;;;;;;;;;;;;;;13.43;100.00;99179.78;10286210;23;19920;-81
2022/10/26 05:30:45;;;;;;;;;;;;;;;13.48;100.00;99183.19;10289935;23;19923;-81
2022/10/26 05:34:47;;;;;;;;;;;;;;;13.55;100.00;99189.13;10269338;23;19920;-81
2022/10/26 05:38:51;;;;;;;;;;;;;;;13.55;100.00;99196.97;10265177;23;19980;-80
2022/10/26 05:42:58;;;;;;;;;;;;;;;13.59;100.00;99206.44;10291021;23;20013;-81
2022/10/26 05:46:59;;;;;;;;;;;;;;;13.63;100.00;99207.22;10280658;23;20228;-81
2022/10/26 05:51:01;;;;;;;;;;;;;;;13.61;100.00;99202.91;10269817;23;19931;-80
2022/10/26 05:55:02;;;;;;;;;;;;;;;13.66;100.00;99208.06;10230053;23;19985;-79
2022/10/26 05:59:09;;;;;;;;;;;;;;;13.72;100.00;99213.16;10280107;23;19928;-79
2022/10/26 06:03:18;;;;;;;;;;;;;;;13.76;100.00;99214.78;10270407;23;19923;-78
2022/10/26 06:07:20;;;;;;;;;;;;;;;13.77;100.00;99223.47;10252603;23;19920;-79
2022/10/26 06:11:22;;;;;;;;;;;;;;;13.77;100.00;99228.69;10254342;23;20296;-79
2022/10/26 06:15:23;;;;;;;;;;;;;;;13.75;100.00;99240.91;10269773;23;20006;-78
2022/10/26 06:19:31;;;;;;;;;;;;;;;13.76;100.00;99238.28;10252658;23;19920;-77
2022/10/26 06:23:35;;;;;;;;;;;;;;;13.77;100.00;99250.44;10250915;23;19924;-77
2022/10/26 06:27:55;;;;;;;;;;;;;;;13.77;100.00;99255.66;10225750;23;20307;-77
2022/10/26 06:31:56;;;;;;;;;;;;;;;13.76;100.00;99263.50;10245696;23;19924;-76
2022/10/26 06:36:16;;;;;;;;;;;;;;;13.74;100.00;99255.72;10202228;23;20591;-77
2022/10/26 06:40:18;;;;;;;;;;;;;;;13.81;100.00;99254.69;10204620;23;19971;-77
2022/10/26 06:44:21;;;;;;;;;;;;;;;13.91;100.00;99256.25;10179101;23;19925;-77
2022/10/26 06:48:27;;;;;;;;;;;;;;;13.93;100.00;99263.19;10174521;23;19928;-78
2022/10/26 06:52:32;;;;;;;;;;;;;;;13.95;100.00;99282.28;10183845;23;19925;-78
2022/10/26 06:56:34;;;;;;;;;;;;;;;13.98;100.00;99300.50;10156441;23;19978;-77
2022/10/26 07:00:38;;;;;;;;;;;;;;;13.99;100.00;99295.25;10174770;23;20672;-78
2022/10/26 07:04:43;;;;;;;;;;;;;;;14.00;100.00;99301.31;10181135;23;19920;-78
2022/10/26 07:08:44;;;;;;;;;;;;;;;13.98;100.00;99297.88;10206079;23;19951;-78
2022/10/26 07:12:45;;;;;;;;;;;;;;;13.97;100.00;99304.00;10181744;23;20003;-78
2022/10/26 07:16:47;;;;;;;;;;;;;;;13.96;100.00;99303.13;10176644;23;19925;-78
2022/10/26 07:20:50;;;;;;;;;;;;;;;14.05;100.00;99320.38;10206140;23;19924;-78
2022/10/26 07:24:52;;;;;;;;;;;;;;;14.13;100.00;99329.78;10182266;23;20025;-78
2022/10/26 07:28:53;;;;;;;;;;;;;;;14.17;100.00;99338.41;10156366;23;20019;-78
2022/10/26 07:32:58;;;;;;;;;;;;;;;14.28;100.00;99346.03;10176096;23;19924;-77
2022/10/26 07:37:00;;;;;;;;;;;;;;;14.42;100.00;99365.75;10229011;23;20256;-78
2022/10/26 07:41:01;;;;;;;;;;;;;;;14.55;100.00;99363.81;10230269;23;19928;-78
2022/10/26 07:45:03;;;;;;;;;;;;;;;14.66;100.00;99364.41;10231379;23;19924;-78
2022/10/26 07:49:04;;;;;;;;;;;;;;;14.79;100.00;99370.25;10230749;23;19955;-78
2022/10/26 07:53:05;;;;;;;;;;;;;;;14.92;100.00;99376.06;10230556;23;20300;-78
2022/10/26 07:57:07;;;;;;;;;;;;;;;15.07;100.00;99378.31;10254092;23;20015;-78
2022/10/26 08:01:10;;;;;;;;;;;;;;;15.20;100.00;99381.53;10222613;23;19935;-78
2022/10/26 08:05:11;;;;;;;;;;;;;;;15.30;99.84;99383.03;10228641;23;19925;-79
2022/10/26 08:09:13;;;;;;;;;;;;;;;15.40;99.51;99397.59;10228863;23;20558;-78
2022/10/26 08:13:14;;;;;;;;;;;;;;;15.47;98.57;99403.56;10229180;23;19920;-78
2022/10/26 08:17:16;;;;;;;;;;;;;;;15.56;98.61;99400.72;10223470;23;19935;-78
2022/10/26 08:21:17;;;;;;;;;;;;;;;15.63;97.87;99402.34;10230494;23;19924;-78
2022/10/26 08:25:35;;;;;;;;;;;;;;;15.72;97.42;99412.56;10207083;23;19932;-77
2022/10/26 08:29:37;;;;;;;;;;;;;;;15.85;97.02;99406.13;10230822;23;20011;-78
2022/10/26 08:33:38;;;;;;;;;;;;;;;15.96;96.29;99413.69;10225753;23;19924;-78
2022/10/26 08:37:45;;;;;;;;;;;;;;;16.07;96.22;99429.13;10252620;23;19920;-78
2022/10/26 08:41:51;;;;;;;;;;;;;;;16.17;95.00;99443.72;10279422;23;19924;-77
2022/10/26 08:45:56;;;;;;;;;;;;;;;16.29;95.80;99443.38;10245604;23;19995;-78
2022/10/26 08:50:03;;;;;;;;;;;;;;;16.45;95.52;99443.84;10253956;23;19982;-77
2022/10/26 08:54:13;;;;;;;;;;;;;;;16.57;95.09;99451.38;10277914;23;19946;-77
2022/10/26 08:58:17;;;;;;;;;;;;;;;16.61;93.40;99451.22;10253709;23;20018;-78
2022/10/26 09:02:19;;;;;;;;;;;;;;;16.66;92.98;99452.84;10221324;23;19977;-78
2022/10/26 09:06:43;;;;;;;;;;;;;;;16.68;92.14;99461.56;10252382;23;20341;-78
2022/10/26 09:10:54;;;;;;;;;;;;;;;16.75;90.43;99461.38;10263359;23;19932;-78
2022/10/26 09:14:56;;;;;;;;;;;;;;;16.83;89.49;99466.38;10279375;23;19946;-77
2022/10/26 09:19:16;;;;;;;;;;;;;;;16.98;89.69;99472.97;10245837;23;20324;-77
2022/10/26 09:23:23;;;;;;;;;;;;;;;17.13;88.80;99469.88;10251727;23;19924;-77
2022/10/26 09:27:28;;;;;;;;;;;;;;;17.20;87.86;99479.28;10252918;23;19988;-78
2022/10/26 09:31:31;;;;;;;;;;;;;;;17.35;88.05;99486.69;10220101;23;19920;-77
2022/10/26 09:35:42;;;;;;;;;;;;;;;17.50;87.89;99485.38;10250564;23;19923;-78
2022/10/26 09:40:01;;;;;;;;;;;;;;;17.65;84.97;99494.56;10279616;23;20007;-78
2022/10/26 09:44:18;;;;;;;;;;;;;;;17.77;83.98;99491.53;10249493;23;19975;-76
2022/10/26 09:48:30;;;;;;;;;;;;;;;17.83;83.21;99494.00;10266933;23;19978;-76
2022/10/26 09:52:32;;;;;;;;;;;;;;;17.86;82.68;99501.78;10249606;23;20027;-76
2022/10/26 09:56:35;;;;;;;;;;;;;;;17.90;82.31;99506.00;10276672;23;20337;-77
2022/10/26 10:00:37;;;;;;;;;;;;;;;17.99;82.15;99516.25;10219262;23;19966;-77
2022/10/26 10:04:45;;;;;;;;;;;;;;;18.15;81.54;99523.63;10225450;23;19924;-76
2022/10/26 10:09:09;;;;;;;;;;;;;;;18.29;80.78;99524.00;10248993;23;20019;-77
2022/10/26 10:13:15;;;;;;;;;;;;;;;18.49;78.26;99532.09;10249633;23;19955;-77
2022/10/26 10:17:19;;;;;;;;;;;;;;;18.63;78.65;99532.47;10218625;23;19986;-77
2022/10/26 10:21:21;;;;;;;;;;;;;;;18.63;75.71;99535.13;10224365;23;20459;-77
2022/10/26 10:25:25;;;;;;;;;;;;;;;18.76;75.83;99527.66;10275296;23;19924;-77
2022/10/26 10:29:27;;;;;;;;;;;;;;;19.07;76.38;99542.34;10225422;23;19919;-77
2022/10/26 10:33:36;;;;;;;;;;;;;;;19.07;72.89;99535.31;10217964;23;20637;-77
2022/10/26 10:37:45;;;;;;;;;;;;;;;19.27;72.34;99540.69;10225207;23;20594;-78
2022/10/26 10:41:47;;;;;;;;;;;;;;;19.32;71.33;99538.75;10249902;23;19993;-77
2022/10/26 10:45:50;;;;;;;;;;;;;;;19.39;70.95;99535.88;10243981;23;20323;-77
2022/10/26 10:50:00;;;;;;;;;;;;;;;19.55;71.28;99551.06;10251718;23;19923;-77
2022/10/26 10:54:03;;;;;;;;;;;;;;;19.73;71.23;99548.63;10251135;23;20246;-78
2022/10/26 10:58:09;;;;;;;;;;;;;;;19.95;69.60;99548.66;10251386;23;20569;-77
2022/10/26 11:02:28;;;;;;;;;;;;;;;20.12;69.01;99562.88;10243756;23;20042;-77
2022/10/26 11:06:33;;;;;;;;;;;;;;;20.36;68.66;99557.50;10250632;23;20291;-78
2022/10/26 11:10:40;;;;;;;;;;;;;;;20.66;66.78;99556.25;10226518;23;20367;-77
2022/10/26 11:14:44;;;;;;;;;;;;;;;20.76;64.50;99565.47;10277121;23;20266;-77
2022/10/26 11:18:55;;;;;;;;;;;;;;;20.74;65.87;99561.19;10246526;23;19931;-77
2022/10/26 11:23:15;;;;;;;;;;;;;;;20.81;65.57;99562.63;10252503;23;20752;-77
2022/10/26 11:27:20;;;;;;;;;;;;;;;20.89;65.66;99555.25;10253383;23;19924;-77
2022/10/26 11:31:24;;;;;;;;;;;;;;;20.85;64.18;99558.94;10272119;23;19928;-77
2022/10/26 11:35:31;;;;;;;;;;;;;;;20.86;64.52;99565.09;10202515;23;19990;-77
2022/10/26 11:39:37;;;;;;;;;;;;;;;20.91;64.93;99561.31;10178750;23;20015;-77
2022/10/26 11:43:46;;;;;;;;;;;;;;;20.92;64.25;99549.81;10178128;23;20032;-77
2022/10/26 11:47:54;;;;;;;;;;;;;;;21.01;64.87;99553.84;10171248;23;19924;-77
2022/10/26 11:52:45;;;;;;;;;;;;;;;21.10;64.18;99561.34;10175597;23;19925;-77
2022/10/26 11:56:48;;;;;;;;;;;;;;;21.23;64.66;99556.38;10204346;23;19925;-77
2022/10/26 12:00:56;;;;;;;;;;;;;;;21.33;64.42;99552.41;10170753;23;19995;-78
2022/10/26 12:05:07;;;;;;;;;;;;;;;21.40;63.83;99560.00;10180396;23;19978;-79
2022/10/26 12:09:16;;;;;;;;;;;;;;;21.47;64.65;99567.63;10181161;23;19951;-79
2022/10/26 12:13:31;;;;;;;;;;;;;;;21.53;63.45;99567.34;10179990;23;19924;-78
2022/10/26 12:17:47;;;;;;;;;;;;;;;21.52;62.65;99574.41;10195829;23;19928;-78
2022/10/26 12:22:16;;;;;;;;;;;;;;;21.50;62.44;99573.63;10180374;23;20011;-79
2022/10/26 12:26:24;;;;;;;;;;;;;;;21.49;63.00;99576.34;10180915;23;19959;-79
2022/10/26 12:30:28;;;;;;;;;;;;;;;21.48;62.33;99580.78;10173766;23;19924;-79
2022/10/26 12:34:47;;;;;;;;;;;;;;;21.52;62.41;99590.28;10221477;23;19928;-77
2022/10/26 12:38:56;;;;;;;;;;;;;;;21.52;61.86;99595.56;10276883;23;19924;-78
2022/10/26 12:43:12;;;;;;;;;;;;;;;21.52;61.07;99594.69;10275974;23;20010;-78
2022/10/26 12:47:28;;;;;;;;;;;;;;;21.46;61.34;99593.19;10260993;23;19924;-77
2022/10/26 12:51:46;;;;;;;;;;;;;;;21.46;62.25;99597.63;10244481;23;19948;-77
2022/10/26 12:56:01;;;;;;;;;;;;;;;21.41;61.86;99590.78;10276106;23;19948;-78
2022/10/26 13:00:04;;;;;;;;;;;;;;;21.34;62.04;99597.25;10271716;23;19959;-78
2022/10/26 13:04:21;;;;;;;;;;;;;;;21.34;62.55;99604.31;10272043;23;19958;-77
2022/10/26 13:08:25;;;;;;;;;;;;;;;21.37;62.21;99593.63;10249027;23;19927;-78
2022/10/26 13:12:59;;;;;;;;;;;;;;;21.36;62.09;99594.53;10271481;23;19990;-78
2022/10/26 13:17:23;;;;;;;;;;;;;;;21.40;63.06;99596.13;10246567;23;19927;-78
2022/10/26 13:21:26;;;;;;;;;;;;;;;21.40;62.20;99601.41;10275479;23;19935;-78
2022/10/26 13:26:29;;;;;;;;;;;;;;;21.48;62.17;99604.56;10276851;23;19924;-78
2022/10/26 13:30:43;;;;;;;;;;;;;;;21.38;62.15;99598.84;10266064;23;19924;-78
2022/10/26 13:35:11;;;;;;;;;;;;;;;21.41;62.67;99606.63;10277837;23;19983;-78
2022/10/26 13:39:18;;;;;;;;;;;;;;;21.38;61.11;99603.28;10276506;23;19928;-78
2022/10/26 13:43:21;;;;;;;;;;;;;;;21.35;61.63;99606.03;10250477;23;20012;-78
2022/10/26 13:47:29;;;;;;;;;;;;;;;21.34;60.92;99606.97;10243603;23;19931;-78
2022/10/26 13:51:37;;;;;;;;;;;;;;;21.34;59.90;99599.88;10275482;23;19924;-77
2022/10/26 13:55:47;;;;;;;;;;;;;;;21.34;60.90;99614.88;10272613;23;19986;-79
2022/10/26 13:59:56;;;;;;;;;;;;;;;21.27;59.82;99616.09;10250931;23;19923;-79
2022/10/26 14:04:16;;;;;;;;;;;;;;;21.29;60.31;99627.44;10271281;23;19930;-76
2022/10/26 14:08:20;;;;;;;;;;;;;;;21.27;59.82;99626.66;10270798;23;20667;-76
2022/10/26 14:12:24;;;;;;;;;;;;;;;21.26;60.05;99635.50;10270639;23;19924;-76
2022/10/26 14:16:28;;;;;;;;;;;;;;;21.25;61.06;99628.50;10245572;23;20360;-76
2022/10/26 14:20:32;;;;;;;;;;;;;;;21.22;61.30;99631.25;10244830;23;19982;-76
2022/10/26 14:24:39;;;;;;;;;;;;;;;21.15;61.35;99646.50;10244275;23;19966;-76
2022/10/26 14:29:00;;;;;;;;;;;;;;;21.04;60.14;99646.97;10260269;23;19920;-76
2022/10/26 14:33:16;;;;;;;;;;;;;;;20.99;60.35;99645.44;10236255;23;19994;-76
2022/10/26 14:37:23;;;;;;;;;;;;;;;20.95;60.78;99651.78;10271907;23;19952;-76
2022/10/26 14:41:27;;;;;;;;;;;;;;;20.90;61.24;99661.69;10270876;23;19944;-76
2022/10/26 14:45:29;;;;;;;;;;;;;;;20.87;62.93;99665.31;10237930;23;19927;-76
2022/10/26 14:49:49;;;;;;;;;;;;;;;20.80;63.42;99669.13;10272353;23;20283;-75
2022/10/26 14:53:51;;;;;;;;;;;;;;;20.71;65.09;99672.16;10274800;23;20009;-75
2022/10/26 14:58:05;;;;;;;;;;;;;;;20.55;66.23;99664.00;10271292;23;19924;-75
2022/10/26 15:02:09;;;;;;;;;;;;;;;20.46;67.66;99670.50;10215279;23;19924;-75
2022/10/26 15:06:28;;;;;;;;;;;;;;;20.32;68.25;99672.81;10247096;23;19989;-75
2022/10/26 15:10:36;;;;;;;;;;;;;;;20.17;69.72;99676.91;10273218;23;19928;-75
2022/10/26 15:14:42;;;;;;;;;;;;;;;20.07;69.49;99679.97;10272259;23;20012;-75
2022/10/26 15:18:45;;;;;;;;;;;;;;;19.90;71.32;99694.63;10195494;23;19924;-75
2022/10/26 15:22:54;;;;;;;;;;;;;;;19.75;72.06;99691.72;10217993;23;19974;-75
2022/10/26 15:26:58;;;;;;;;;;;;;;;19.51;73.76;99696.94;10195063;23;19955;-75
2022/10/26 15:31:11;;;;;;;;;;;;;;;19.29;74.71;99698.63;10219183;23;19955;-75
2022/10/26 15:35:19;;;;;;;;;;;;;;;19.08;75.68;99705.47;10193060;23;20275;-75
2022/10/26 15:39:21;;;;;;;;;;;;;;;18.88;76.89;99716.69;10144100;23;19929;-74
2022/10/26 15:43:22;;;;;;;;;;;;;;;18.68;77.18;99711.22;10163752;23;19951;-75
2022/10/26 15:47:27;;;;;;;;;;;;;;;18.61;76.56;99714.91;10160229;23;19928;-75
2022/10/26 15:51:29;;;;;;;;;;;;;;;18.41;78.92;99719.03;10165577;23;19979;-75
2022/10/26 15:55:30;;;;;;;;;;;;;;;18.20;80.27;99716.19;10169510;23;20241;-75
2022/10/26 15:59:31;;;;;;;;;;;;;;;18.04;80.89;99731.56;10169164;23;19983;-75
2022/10/26 16:03:33;;;;;;;;;;;;;;;17.88;81.12;99735.53;10135003;23;20506;-75
2022/10/26 16:07:34;;;;;;;;;;;;;;;17.75;82.05;99737.63;10168705;23;19924;-74
2022/10/26 16:11:35;;;;;;;;;;;;;;;17.57;82.50;99743.38;10167637;23;20343;-75
2022/10/26 16:15:46;;;;;;;;;;;;;;;17.39;83.24;99742.94;10137057;23;19932;-75
2022/10/26 16:19:48;;;;;;;;;;;;;;;17.20;84.15;99744.34;10166972;23;19975;-76
2022/10/26 16:23:53;;;;;;;;;;;;;;;17.03;84.84;99742.13;10167579;23;20030;-76
2022/10/26 16:27:56;;;;;;;;;;;;;;;16.81;85.76;99749.69;10170495;23;19956;-76
2022/10/26 16:31:59;;;;;;;;;;;;;;;16.66;86.38;99750.00;10160286;23;20268;-76
2022/10/26 16:36:10;;;;;;;;;;;;;;;16.51;86.45;99755.59;10204817;23;19924;-76
2022/10/26 16:40:13;;;;;;;;;;;;;;;16.27;86.89;99757.00;10195331;23;19924;-77
2022/10/26 16:44:15;;;;;;;;;;;;;;;16.12;86.91;99773.06;10195371;23;20220;-77
2022/10/26 16:48:16;;;;;;;;;;;;;;;16.01;87.37;99778.53;10251641;23;19959;-77
2022/10/26 16:52:17;;;;;;;;;;;;;;;15.81;88.04;99778.94;10245230;23;19924;-77
2022/10/26 16:56:20;;;;;;;;;;;;;;;15.67;88.90;99776.56;10271711;23;19920;-77
2022/10/26 17:00:22;;;;;;;;;;;;;;;15.54;89.30;99776.78;10265094;23;19990;-77
2022/10/26 17:04:23;;;;;;;;;;;;;;;15.39;89.64;99780.53;10271813;23;20457;-77
2022/10/26 17:08:25;;;;;;;;;;;;;;;15.23;89.87;99779.06;10221230;23;19924;-77
2022/10/26 17:12:27;;;;;;;;;;;;;;;15.13;90.75;99799.31;10247421;23;20449;-77
2022/10/26 17:16:28;;;;;;;;;;;;;;;15.04;90.89;99802.91;10238213;23;19946;-77
2022/10/26 17:20:31;;;;;;;;;;;;;;;14.94;91.31;99801.34;10242177;23;19931;-76
2022/10/26 17:24:33;;;;;;;;;;;;;;;14.82;91.47;99805.00;10236800;23;19928;-77
2022/10/26 17:28:35;;;;;;;;;;;;;;;14.73;91.71;99819.97;10245508;23;19928;-77
2022/10/26 17:32:45;;;;;;;;;;;;;;;14.65;92.10;99814.84;10260988;23;19924;-77
2022/10/26 17:36:47;;;;;;;;;;;;;;;14.53;91.87;99825.44;10174922;23;20624;-77
2022/10/26 17:40:49;;;;;;;;;;;;;;;14.44;92.49;99834.28;10171690;23;19924;-77
2022/10/26 17:44:54;;;;;;;;;;;;;;;14.35;92.57;99834.38;10167893;23;19983;-77
2022/10/26 17:48:57;;;;;;;;;;;;;;;14.26;92.89;99844.06;10162725;23;19952;-77
2022/10/26 17:52:59;;;;;;;;;;;;;;;14.13;92.96;99844.22;10170055;23;19929;-77
2022/10/26 17:57:03;;;;;;;;;;;;;;;13.99;93.48;99838.28;10170207;23;20004;-77
2022/10/26 18:01:10;;;;;;;;;;;;;;;13.87;93.76;99849.72;10185927;23;20008;-77
2022/10/26 18:05:12;;;;;;;;;;;;;;;13.80;94.20;99855.00;10170209;23;19931;-77
2022/10/26 18:09:19;;;;;;;;;;;;;;;13.78;94.78;99872.44;10174494;23;19959;-77
2022/10/26 18:13:25;;;;;;;;;;;;;;;13.66;94.57;99869.97;10168605;23;19924;-76
2022/10/26 18:17:27;;;;;;;;;;;;;;;13.60;94.83;99870.88;10140561;23;19928;-77
2022/10/26 18:21:30;;;;;;;;;;;;;;;13.53;95.76;99871.81;10171036;23;19991;-76
2022/10/26 18:25:34;;;;;;;;;;;;;;;13.48;95.91;99887.50;10175800;23;19925;-77
2022/10/26 18:29:37;;;;;;;;;;;;;;;13.45;96.40;99897.06;10176849;23;19948;-76
2022/10/26 18:33:40;;;;;;;;;;;;;;;13.35;95.74;99893.69;10180484;23;20386;-77
2022/10/26 18:37:43;;;;;;;;;;;;;;;13.29;96.45;99906.78;10275708;23;20270;-77
2022/10/26 18:41:46;;;;;;;;;;;;;;;13.26;96.36;99906.78;10251442;23;20208;-77
2022/10/26 18:45:51;;;;;;;;;;;;;;;13.21;96.87;99906.81;10246808;23;19935;-77
2022/10/26 18:49:54;;;;;;;;;;;;;;;13.16;96.27;99916.41;10276278;23;19931;-78
2022/10/26 18:53:57;;;;;;;;;;;;;;;13.12;96.67;99916.44;10277579;23;20006;-77
2022/10/26 18:57:59;;;;;;;;;;;;;;;13.02;96.19;99923.44;10226989;23;19939;-77
2022/10/26 19:02:01;;;;;;;;;;;;;;;12.98;96.45;99924.31;10218576;23;20004;-77
2022/10/26 19:06:10;;;;;;;;;;;;;;;12.94;96.81;99927.84;10251251;23;19924;-77
2022/10/26 19:10:12;;;;;;;;;;;;;;;12.90;97.09;99934.78;10277742;23;19934;-76
2022/10/26 19:14:13;;;;;;;;;;;;;;;12.82;95.89;99938.31;10251776;23;20287;-76
2022/10/26 19:18:15;;;;;;;;;;;;;;;12.69;96.43;99938.34;10240597;23;19952;-75
2022/10/26 19:22:16;;;;;;;;;;;;;;;12.63;96.89;99942.72;10275721;23;20022;-75
2022/10/26 19:26:19;;;;;;;;;;;;;;;12.59;97.27;99946.22;10276467;23;19920;-76
2022/10/26 19:30:21;;;;;;;;;;;;;;;12.52;97.27;99958.38;10242937;23;19924;-76
2022/10/26 19:34:22;;;;;;;;;;;;;;;12.47;97.47;99954.94;10249279;23;19923;-76
2022/10/26 19:38:24;;;;;;;;;;;;;;;12.39;97.54;99952.38;10275481;23;19924;-76
2022/10/26 19:42:28;;;;;;;;;;;;;;;12.33;97.68;99949.75;10249812;23;20375;-76
2022/10/26 19:46:32;;;;;;;;;;;;;;;12.26;97.33;99957.59;10267548;23;20232;-76
2022/10/26 19:50:33;;;;;;;;;;;;;;;12.24;98.51;99962.81;10274833;23;19955;-78
2022/10/26 19:54:37;;;;;;;;;;;;;;;12.22;98.86;99961.09;10263166;23;19923;-77
2022/10/26 19:58:42;;;;;;;;;;;;;;;12.19;98.55;99959.34;10246342;23;19920;-76
2022/10/26 20:02:43;;;;;;;;;;;;;;;12.14;98.88;99973.25;10240433;23;20002;-76
2022/10/26 20:06:47;;;;;;;;;;;;;;;12.07;98.52;99965.44;10247923;23;19931;-77
2022/10/26 20:10:58;;;;;;;;;;;;;;;12.00;98.32;99966.31;10249219;23;19931;-77
2022/10/26 20:15:00;;;;;;;;;;;;;;;11.96;98.86;99968.91;10249911;23;20180;-77
2022/10/26 20:19:02;;;;;;;;;;;;;;;11.89;98.52;99964.59;10245645;23;19924;-77
2022/10/26 20:23:04;;;;;;;;;;;;;;;11.82;98.91;99970.66;10226044;23;19927;-77
2022/10/26 20:27:06;;;;;;;;;;;;;;;11.79;99.05;99969.78;10249432;23;19927;-77
2022/10/26 20:31:07;;;;;;;;;;;;;;;11.71;98.30;99989.72;10218949;23;19924;-77
2022/10/26 20:35:09;;;;;;;;;;;;;;;11.69;98.68;99980.19;10267842;23;19920;-77
2022/10/26 20:39:10;;;;;;;;;;;;;;;11.65;99.26;99983.63;10225214;23;19927;-77
2022/10/26 20:43:16;;;;;;;;;;;;;;;11.58;99.07;99987.09;10250916;23;19924;-76
2022/10/26 20:47:18;;;;;;;;;;;;;;;11.50;98.68;99989.69;10268867;23;20331;-77
2022/10/26 20:51:23;;;;;;;;;;;;;;;11.48;98.80;99987.06;10250613;23;19932;-77
2022/10/26 20:55:32;;;;;;;;;;;;;;;11.40;98.96;99998.34;10226976;23;19923;-77